Time;durP1;ratioP1;P1;durP2;ratioP2;P2;SDS_P1;SDS_P2;PMS_P1;PMS_P2;Temp;Humidity;BMP_temperature;BMP_pressure;BME280_temperature;BME280_humidity;BME280_pressure;Samples;Min_cycle;Max_cycle;Signal;HPM_P1;HPM_P2
2022/07/26 00:01:03;;;;;;;8.50;6.57;;;;;;;;;;5011330;28;20181;-88
2022/07/26 00:04:07;;;;;;;9.00;6.90;;;;;;;;;;5011603;28;20184;-88
2022/07/26 00:07:11;;;;;;;7.03;6.27;;;;;;;;;;5011207;28;20205;-88
2022/07/26 00:10:15;;;;;;;7.37;5.87;;;;;;;;;;5010963;28;20216;-88
2022/07/26 00:13:20;;;;;;;8.30;5.70;;;;;;;;;;5022639;28;20181;-88
2022/07/26 00:16:24;;;;;;;7.27;5.87;;;;;;;;;;5022396;28;20173;-88
2022/07/26 00:19:28;;;;;;;6.47;5.50;;;;;;;;;;5011088;28;20216;-88
2022/07/26 00:22:33;;;;;;;6.87;5.80;;;;;;;;;;5022490;28;20192;-88
2022/07/26 00:25:55;;;;;;;8.90;5.83;;;;;;;;;;5034156;28;20185;-88
2022/07/26 00:29:02;;;;;;;5.43;4.80;;;;;;;;;;5022551;28;20228;-88
2022/07/26 00:32:06;;;;;;;7.70;5.00;;;;;;;;;;5022225;28;20628;-89
2022/07/26 00:35:10;;;;;;;6.33;4.93;;;;;;;;;;5022448;28;20624;-88
2022/07/26 00:38:14;;;;;;;5.97;4.90;;;;;;;;;;5022509;28;20181;-88
2022/07/26 00:41:18;;;;;;;7.10;4.63;;;;;;;;;;5021627;28;20192;-88
2022/07/26 00:44:22;;;;;;;6.13;4.47;;;;;;;;;;4999278;28;20200;-88
2022/07/26 00:47:26;;;;;;;7.77;5.20;;;;;;;;;;5021518;28;20687;-88
2022/07/26 00:50:31;;;;;;;5.03;4.53;;;;;;;;;;5021525;28;20212;-88
2022/07/26 00:53:35;;;;;;;6.07;4.53;;;;;;;;;;5021825;28;20177;-88
2022/07/26 00:56:39;;;;;;;6.30;4.17;;;;;;;;;;5021679;28;20192;-88
2022/07/26 00:59:43;;;;;;;4.93;4.20;;;;;;;;;;5021512;28;20224;-88
2022/07/26 01:02:47;;;;;;;6.93;4.60;;;;;;;;;;5021946;28;20176;-88
2022/07/26 01:05:53;;;;;;;6.43;4.47;;;;;;;;;;5010651;28;20201;-88
2022/07/26 01:08:57;;;;;;;8.70;4.43;;;;;;;;;;5022019;28;20557;-89
2022/07/26 01:12:02;;;;;;;6.57;4.57;;;;;;;;;;5021689;28;20181;-88
2022/07/26 01:15:06;;;;;;;6.10;4.30;;;;;;;;;;5021067;28;20205;-88
2022/07/26 01:18:11;;;;;;;5.47;4.00;;;;;;;;;;5010501;28;20196;-88
2022/07/26 01:21:15;;;;;;;5.57;4.67;;;;;;;;;;5021221;28;20544;-88
2022/07/26 01:24:19;;;;;;;5.60;4.23;;;;;;;;;;5021455;28;20196;-88
2022/07/26 01:27:23;;;;;;;5.50;4.53;;;;;;;;;;5032873;28;20208;-88
2022/07/26 01:30:27;;;;;;;4.93;4.37;;;;;;;;;;5010098;28;20220;-88
2022/07/26 01:33:33;;;;;;;5.10;4.33;;;;;;;;;;5021669;28;20177;-88
2022/07/26 01:36:37;;;;;;;5.43;4.23;;;;;;;;;;5010728;28;20177;-88
2022/07/26 01:39:42;;;;;;;8.07;4.60;;;;;;;;;;5021035;28;20691;-87
2022/07/26 01:42:46;;;;;;;6.67;4.27;;;;;;;;;;5032657;28;20177;-87
2022/07/26 01:45:50;;;;;;;9.20;4.60;;;;;;;;;;5010218;28;20188;-87
2022/07/26 01:48:55;;;;;;;5.53;4.40;;;;;;;;;;5021089;28;20208;-87
2022/07/26 01:51:59;;;;;;;5.70;4.30;;;;;;;;;;5020873;28;20196;-87
2022/07/26 01:55:03;;;;;;;5.33;4.33;;;;;;;;;;5021396;28;20189;-87
2022/07/26 01:58:07;;;;;;;5.50;4.30;;;;;;;;;;5010139;28;20181;-87
2022/07/26 02:01:11;;;;;;;5.83;4.73;;;;;;;;;;5021089;28;20516;-87
2022/07/26 02:05:16;;;;;;;6.00;4.90;;;;;;;;;;4998840;28;20181;-87
2022/07/26 02:07:49;;;;;;;5.37;4.73;;;;;;;;;;5015714;28;20209;-87
2022/07/26 02:10:59;;;;;;;7.00;5.13;;;;;;;;;;5021509;28;20544;-87
2022/07/26 02:14:04;;;;;;;7.50;4.33;;;;;;;;;;5023123;28;20197;-87
2022/07/26 02:17:08;;;;;;;5.53;4.50;;;;;;;;;;5024753;28;20173;-87
2022/07/26 02:20:15;;;;;;;10.87;5.37;;;;;;;;;;5024256;28;20220;-87
2022/07/26 02:23:20;;;;;;;7.83;4.77;;;;;;;;;;5024443;28;20193;-87
2022/07/26 02:26:24;;;;;;;6.97;4.80;;;;;;;;;;5024234;28;20196;-88
2022/07/26 02:29:30;;;;;;;11.17;5.00;;;;;;;;;;5012762;28;20224;-88
2022/07/26 02:32:34;;;;;;;8.57;4.67;;;;;;;;;;5013233;28;20651;-88
2022/07/26 02:35:39;;;;;;;7.10;5.03;;;;;;;;;;5024300;28;20185;-89
2022/07/26 02:38:43;;;;;;;7.40;4.77;;;;;;;;;;5013065;28;20181;-85
2022/07/26 02:41:48;;;;;;;10.07;4.77;;;;;;;;;;5013901;28;20177;-84
2022/07/26 02:44:52;;;;;;;7.23;4.77;;;;;;;;;;5013977;28;20190;-85
2022/07/26 02:47:57;;;;;;;8.83;4.73;;;;;;;;;;5025485;28;20208;-85
2022/07/26 02:51:01;;;;;;;5.53;4.40;;;;;;;;;;5025049;28;20180;-85
2022/07/26 02:54:05;;;;;;;6.37;4.23;;;;;;;;;;5002704;28;20520;-85
2022/07/26 02:57:09;;;;;;;7.87;4.13;;;;;;;;;;5024951;28;20181;-85
2022/07/26 03:00:15;;;;;;;6.90;4.90;;;;;;;;;;5024588;28;20572;-84
2022/07/26 03:03:19;;;;;;;5.33;4.83;;;;;;;;;;5013202;28;20193;-85
2022/07/26 03:06:23;;;;;;;7.97;5.53;;;;;;;;;;5014082;28;20607;-85
2022/07/26 03:09:28;;;;;;;7.80;4.40;;;;;;;;;;5024593;28;20208;-84
2022/07/26 03:12:32;;;;;;;7.33;4.70;;;;;;;;;;5025021;28;20185;-85
2022/07/26 03:15:36;;;;;;;6.87;4.67;;;;;;;;;;5012751;28;20188;-84
2022/07/26 03:18:40;;;;;;;6.07;4.57;;;;;;;;;;5024316;28;20189;-85
2022/07/26 03:21:44;;;;;;;7.93;4.90;;;;;;;;;;5024689;28;20185;-85
2022/07/26 03:24:48;;;;;;;6.80;4.33;;;;;;;;;;5023625;28;20189;-84
2022/07/26 03:27:58;;;;;;;8.77;4.60;;;;;;;;;;5013479;28;20228;-85
2022/07/26 03:31:02;;;;;;;6.40;4.53;;;;;;;;;;5012647;28;20181;-87
2022/07/26 03:34:06;;;;;;;12.87;4.93;;;;;;;;;;5022641;28;20181;-87
2022/07/26 03:37:11;;;;;;;9.00;4.97;;;;;;;;;;5011580;28;20177;-88
2022/07/26 03:40:16;;;;;;;8.87;5.47;;;;;;;;;;5011357;28;20213;-87
2022/07/26 03:43:20;;;;;;;9.47;4.83;;;;;;;;;;5012223;28;20177;-86
2022/07/26 03:46:24;;;;;;;8.00;4.73;;;;;;;;;;5001026;28;20185;-86
2022/07/26 03:49:28;;;;;;;7.90;4.60;;;;;;;;;;5000622;28;20209;-87
2022/07/26 03:52:32;;;;;;;8.37;4.87;;;;;;;;;;5000552;28;20525;-87
2022/07/26 03:59:02;;;;;;;10.77;5.20;;;;;;;;;;5034735;28;20577;-87
2022/07/26 04:02:06;;;;;;;11.10;4.50;;;;;;;;;;5011087;28;20181;-87
2022/07/26 04:05:10;;;;;;;8.00;4.93;;;;;;;;;;5034227;28;20620;-87
2022/07/26 04:08:15;;;;;;;9.70;4.90;;;;;;;;;;5022527;28;20209;-87
2022/07/26 04:11:19;;;;;;;10.73;5.43;;;;;;;;;;5000332;28;20173;-84
2022/07/26 04:14:24;;;;;;;6.87;4.30;;;;;;;;;;5023660;28;20536;-85
2022/07/26 04:17:29;;;;;;;7.70;5.07;;;;;;;;;;5024041;28;20172;-85
2022/07/26 04:20:33;;;;;;;7.00;5.17;;;;;;;;;;5000793;28;20217;-85
2022/07/26 04:23:37;;;;;;;8.07;5.23;;;;;;;;;;5012345;28;20517;-85
2022/07/26 04:26:41;;;;;;;10.67;5.50;;;;;;;;;;5001457;28;20189;-85
2022/07/26 04:29:45;;;;;;;7.43;4.83;;;;;;;;;;5034581;28;20212;-85
2022/07/26 04:32:50;;;;;;;12.57;5.43;;;;;;;;;;5035119;28;20172;-85
2022/07/26 04:35:54;;;;;;;9.37;4.90;;;;;;;;;;5011905;28;20540;-85
2022/07/26 04:38:58;;;;;;;8.10;5.03;;;;;;;;;;5012355;28;20687;-85
2022/07/26 04:42:02;;;;;;;9.27;4.30;;;;;;;;;;5011242;28;20196;-84
2022/07/26 04:45:07;;;;;;;11.97;5.17;;;;;;;;;;5022624;28;20181;-85
2022/07/26 04:48:12;;;;;;;8.40;5.20;;;;;;;;;;4997092;28;20220;-85
2022/07/26 04:51:16;;;;;;;7.20;4.97;;;;;;;;;;5023427;28;20177;-85
2022/07/26 04:54:21;;;;;;;8.20;5.00;;;;;;;;;;4990179;28;20184;-85
2022/07/26 04:57:25;;;;;;;7.73;4.60;;;;;;;;;;5011441;28;20259;-85
2022/07/26 05:00:30;;;;;;;10.23;4.50;;;;;;;;;;4994652;28;20221;-85
2022/07/26 05:03:34;;;;;;;9.10;4.50;;;;;;;;;;4990723;28;20189;-87
2022/07/26 05:06:38;;;;;;;5.90;4.97;;;;;;;;;;5001918;28;20513;-87
2022/07/26 05:09:42;;;;;;;8.70;5.03;;;;;;;;;;4979678;28;20209;-87
2022/07/26 05:12:47;;;;;;;6.93;4.60;;;;;;;;;;4990801;28;20177;-87
2022/07/26 05:15:51;;;;;;;9.87;4.60;;;;;;;;;;5013231;28;20181;-87
2022/07/26 05:18:55;;;;;;;11.27;5.27;;;;;;;;;;4979603;28;20209;-87
2022/07/26 05:21:59;;;;;;;8.80;4.23;;;;;;;;;;5013081;28;20188;-87
2022/07/26 05:25:04;;;;;;;7.47;4.53;;;;;;;;;;4979729;28;20186;-87
2022/07/26 05:28:08;;;;;;;8.07;4.07;;;;;;;;;;5001713;28;20209;-87
2022/07/26 05:31:12;;;;;;;5.67;4.57;;;;;;;;;;4990413;28;20185;-87
2022/07/26 05:34:16;;;;;;;18.07;4.70;;;;;;;;;;5001879;28;20518;-87
2022/07/26 05:37:20;;;;;;;7.30;4.03;;;;;;;;;;5002048;28;20185;-89
2022/07/26 05:40:25;;;;;;;9.03;4.53;;;;;;;;;;4990260;28;20250;-86
2022/07/26 05:43:29;;;;;;;8.93;4.23;;;;;;;;;;4979319;28;20621;-86
2022/07/26 05:46:33;;;;;;;8.43;3.90;;;;;;;;;;4980674;28;20521;-84
2022/07/26 05:49:37;;;;;;;9.87;4.33;;;;;;;;;;4994661;28;20703;-85
2022/07/26 05:52:41;;;;;;;12.27;4.43;;;;;;;;;;5005724;28;20181;-85
2022/07/26 05:55:45;;;;;;;6.73;3.63;;;;;;;;;;4995311;28;20198;-86
2022/07/26 05:58:50;;;;;;;8.23;3.43;;;;;;;;;;5005196;28;20217;-83
2022/07/26 06:01:57;;;;;;;4.67;4.00;;;;;;;;;;4994343;28;20513;-84
2022/07/26 06:05:01;;;;;;;5.77;3.73;;;;;;;;;;4994336;28;20173;-84
2022/07/26 06:08:05;;;;;;;7.20;3.37;;;;;;;;;;5005613;28;20209;-84
2022/07/26 06:11:09;;;;;;;10.17;4.20;;;;;;;;;;4993999;28;20178;-84
2022/07/26 06:14:13;;;;;;;5.60;3.97;;;;;;;;;;4982919;28;20190;-84
2022/07/26 06:17:17;;;;;;;6.07;3.77;;;;;;;;;;5016395;28;20186;-84
2022/07/26 06:20:22;;;;;;;5.13;3.40;;;;;;;;;;4993686;28;20217;-84
2022/07/26 06:23:26;;;;;;;6.97;3.23;;;;;;;;;;4993831;28;20186;-84
2022/07/26 06:26:30;;;;;;;4.60;3.30;;;;;;;;;;5004848;28;20521;-84
2022/07/26 06:29:34;;;;;;;6.43;3.10;;;;;;;;;;4995961;28;20224;-84
2022/07/26 06:32:39;;;;;;;6.10;3.53;;;;;;;;;;4990172;28;20185;-84
2022/07/26 06:35:43;;;;;;;5.80;3.37;;;;;;;;;;5028422;28;20181;-84
2022/07/26 06:38:48;;;;;;;4.80;3.00;;;;;;;;;;5035504;28;20189;-84
2022/07/26 06:41:52;;;;;;;5.97;2.53;;;;;;;;;;5012604;28;20537;-84
2022/07/26 06:44:59;;;;;;;3.43;2.70;;;;;;;;;;5024597;28;20184;-84
2022/07/26 06:48:04;;;;;;;3.07;2.30;;;;;;;;;;4993219;28;20204;-84
2022/07/26 06:51:09;;;;;;;5.10;2.70;;;;;;;;;;4992380;28;20528;-86
2022/07/26 06:54:13;;;;;;;4.07;2.80;;;;;;;;;;4992144;28;20181;-88
2022/07/26 06:57:17;;;;;;;4.43;2.43;;;;;;;;;;5018890;28;20184;-89
2022/07/26 07:00:21;;;;;;;5.77;2.40;;;;;;;;;;5012036;28;20572;-88
2022/07/26 07:03:25;;;;;;;5.37;2.93;;;;;;;;;;5023932;28;20631;-89
2022/07/26 07:06:29;;;;;;;5.03;2.70;;;;;;;;;;5012270;28;20177;-88
2022/07/26 07:09:35;;;;;;;3.03;2.43;;;;;;;;;;5007415;28;20216;-88
2022/07/26 07:12:40;;;;;;;4.80;2.63;;;;;;;;;;4991662;28;20180;-88
2022/07/26 07:15:44;;;;;;;4.20;2.20;;;;;;;;;;5018461;28;20184;-86
2022/07/26 07:18:50;;;;;;;5.33;2.13;;;;;;;;;;5001166;28;20188;-86
2022/07/26 07:21:54;;;;;;;3.97;2.33;;;;;;;;;;5000856;28;20188;-87
2022/07/26 07:24:59;;;;;;;5.17;2.27;;;;;;;;;;5012052;28;20173;-87
2022/07/26 07:28:04;;;;;;;4.10;2.20;;;;;;;;;;5035170;28;20177;-86
2022/07/26 07:31:07;;;;;;;3.50;2.13;;;;;;;;;;5011616;28;20181;-87
2022/07/26 07:34:12;;;;;;;3.97;1.97;;;;;;;;;;5023072;28;20176;-87
2022/07/26 07:37:17;;;;;;;4.53;2.10;;;;;;;;;;5022923;28;20180;-87
2022/07/26 07:40:21;;;;;;;3.37;2.10;;;;;;;;;;5022920;28;20217;-86
2022/07/26 07:43:25;;;;;;;2.80;2.07;;;;;;;;;;5022799;28;20521;-86
2022/07/26 07:46:30;;;;;;;2.67;1.83;;;;;;;;;;5023145;28;20181;-86
2022/07/26 07:49:35;;;;;;;3.03;1.93;;;;;;;;;;5022788;28;20703;-87
2022/07/26 07:52:39;;;;;;;5.47;2.03;;;;;;;;;;5022645;28;20204;-87
2022/07/26 07:55:43;;;;;;;2.63;2.03;;;;;;;;;;5022905;28;20180;-87
2022/07/26 07:58:47;;;;;;;4.27;2.00;;;;;;;;;;5033618;28;20181;-87
2022/07/26 08:01:51;;;;;;;2.07;1.60;;;;;;;;;;5011705;28;20183;-87
2022/07/26 08:04:56;;;;;;;2.93;1.60;;;;;;;;;;5022497;28;20186;-87
2022/07/26 08:08:02;;;;;;;3.43;1.43;;;;;;;;;;5000349;28;20182;-87
2022/07/26 08:11:06;;;;;;;1.63;1.20;;;;;;;;;;5033142;28;20181;-87
2022/07/26 08:14:10;;;;;;;1.73;1.33;;;;;;;;;;5011050;28;20517;-87
2022/07/26 08:17:14;;;;;;;2.37;1.30;;;;;;;;;;5011347;28;20523;-87
2022/07/26 08:20:19;;;;;;;6.27;1.80;;;;;;;;;;5022278;28;20213;-87
2022/07/26 08:23:23;;;;;;;2.93;1.40;;;;;;;;;;5022468;28;20178;-87
2022/07/26 08:26:27;;;;;;;2.23;1.50;;;;;;;;;;5022096;28;20182;-87
2022/07/26 08:29:31;;;;;;;3.23;1.37;;;;;;;;;;4999250;28;20228;-87
2022/07/26 08:32:36;;;;;;;2.07;1.40;;;;;;;;;;5010803;28;20187;-87
2022/07/26 08:35:40;;;;;;;3.20;1.33;;;;;;;;;;5010944;28;20182;-87
2022/07/26 08:38:44;;;;;;;2.13;1.50;;;;;;;;;;4999556;28;20184;-87
2022/07/26 08:41:48;;;;;;;5.67;1.30;;;;;;;;;;5021915;28;20187;-87
2022/07/26 08:44:53;;;;;;;3.57;1.30;;;;;;;;;;4999478;28;20177;-87
2022/07/26 08:47:58;;;;;;;3.17;1.50;;;;;;;;;;5010968;28;20183;-88
2022/07/26 08:51:07;;;;;;;3.60;1.40;;;;;;;;;;5021943;28;20169;-87
2022/07/26 08:54:13;;;;;;;2.63;1.48;;;;;;;;;;5021948;28;20193;-88
2022/07/26 08:57:17;;;;;;;2.45;1.42;;;;;;;;;;5022052;28;20180;-87
2022/07/26 09:00:29;;;;;;;2.20;1.50;;;;;;;;;;5032728;28;20216;-87
2022/07/26 09:03:36;;;;;;;2.60;1.40;;;;;;;;;;5010424;28;20191;-87
2022/07/26 09:06:53;;;;;;;1.40;1.30;;;;;;;;;;5010261;28;20178;-88
2022/07/26 09:10:08;;;;;;;4.85;1.60;;;;;;;;;;5021488;28;20234;-88
2022/07/26 09:13:13;;;;;;;1.38;1.10;;;;;;;;;;5010401;28;20187;-88
2022/07/26 09:16:17;;;;;;;1.83;1.50;;;;;;;;;;5010179;28;20183;-87
2022/07/26 09:19:22;;;;;;;3.63;1.42;;;;;;;;;;5021489;28;20211;-87
2022/07/26 09:22:26;;;;;;;4.90;1.50;;;;;;;;;;5000389;28;20190;-87
2022/07/26 09:25:36;;;;;;;2.63;1.33;;;;;;;;;;5025443;28;20183;-88
2022/07/26 09:28:40;;;;;;;3.78;1.70;;;;;;;;;;5013548;28;20199;-87
2022/07/26 09:31:45;;;;;;;3.97;1.58;;;;;;;;;;5012300;23;20277;-87
2022/07/26 09:34:57;;;;;;;2.03;1.35;;;;;;;;;;4975184;28;20185;-88
2022/07/26 09:38:11;;;;;;;2.85;1.75;;;;;;;;;;4974669;28;20199;-88
2022/07/26 09:41:20;;;;;;;4.68;1.70;;;;;;;;;;4997707;28;20221;-88
2022/07/26 09:44:26;;;;;;;3.47;1.40;;;;;;;;;;4974813;28;20192;-88
2022/07/26 09:47:38;;;;;;;1.50;1.13;;;;;;;;;;4985817;28;20184;-88
2022/07/26 09:50:47;;;;;;;2.67;1.30;;;;;;;;;;4985924;28;20228;-88
2022/07/26 09:53:51;;;;;;;3.95;1.70;;;;;;;;;;4974630;28;20632;-88
2022/07/26 09:56:56;;;;;;;2.97;1.50;;;;;;;;;;4985913;28;20637;-88
2022/07/26 10:00:04;;;;;;;4.97;1.50;;;;;;;;;;4985431;28;20218;-88
2022/07/26 10:03:08;;;;;;;2.17;1.35;;;;;;;;;;4985880;28;20181;-88
2022/07/26 10:06:13;;;;;;;4.68;1.42;;;;;;;;;;4985655;28;20178;-88
2022/07/26 10:09:18;;;;;;;2.80;1.45;;;;;;;;;;4985486;28;20220;-88
2022/07/26 10:12:27;;;;;;;1.75;1.55;;;;;;;;;;4985448;28;20179;-88
2022/07/26 10:15:43;;;;;;;3.00;1.42;;;;;;;;;;4985291;28;20179;-88
2022/07/26 10:18:49;;;;;;;4.55;1.50;;;;;;;;;;4985336;28;20626;-88
2022/07/26 10:22:21;;;;;;;2.35;1.60;;;;;;;;;;4985276;28;20218;-88
2022/07/26 10:25:35;;;;;;;2.55;1.20;;;;;;;;;;4985409;28;20186;-88
2022/07/26 10:28:40;;;;;;;2.67;1.30;;;;;;;;;;4985335;28;20637;-88
2022/07/26 10:31:49;;;;;;;1.63;1.10;;;;;;;;;;4999254;28;20694;-88
2022/07/26 10:34:54;;;;;;;2.42;1.23;;;;;;;;;;4992822;28;20188;-88
2022/07/26 10:38:00;;;;;;;2.95;1.42;;;;;;;;;;5015902;28;20189;-87
2022/07/26 10:41:06;;;;;;;2.17;1.20;;;;;;;;;;5015504;28;20221;-88
2022/07/26 10:44:10;;;;;;;7.07;1.60;;;;;;;;;;4993266;28;20630;-88
2022/07/26 10:47:17;;;;;;;3.03;1.10;;;;;;;;;;5004333;28;20186;-88
2022/07/26 10:50:31;;;;;;;2.15;1.20;;;;;;;;;;5026554;28;20584;-88
2022/07/26 10:53:36;;;;;;;3.22;1.30;;;;;;;;;;5015705;28;20178;-88
2022/07/26 10:56:40;;;;;;;2.50;1.27;;;;;;;;;;5015790;28;20174;-88
2022/07/26 10:59:43;;;;;;;1.98;1.30;;;;;;;;;;5015226;28;20176;-88
2022/07/26 11:02:52;;;;;;;1.95;1.30;;;;;;;;;;5015826;28;20183;-88
2022/07/26 11:05:56;;;;;;;4.18;1.40;;;;;;;;;;5003923;28;20668;-88
2022/07/26 11:09:11;;;;;;;2.17;1.42;;;;;;;;;;5015118;28;20200;-88
2022/07/26 11:12:20;;;;;;;3.80;1.75;;;;;;;;;;5014929;28;20199;-88
2022/07/26 11:15:24;;;;;;;2.75;1.33;;;;;;;;;;5003705;28;20180;-88
2022/07/26 11:18:31;;;;;;;2.75;1.70;;;;;;;;;;5015357;28;20181;-88
2022/07/26 11:21:35;;;;;;;2.53;1.42;;;;;;;;;;5014799;28;20213;-88
2022/07/26 11:24:39;;;;;;;4.30;1.55;;;;;;;;;;5015147;28;20186;-88
2022/07/26 11:28:03;;;;;;;2.85;1.40;;;;;;;;;;5014850;28;20521;-88
2022/07/26 11:31:07;;;;;;;3.90;1.40;;;;;;;;;;5003649;28;20229;-88
2022/07/26 11:34:17;;;;;;;1.83;1.55;;;;;;;;;;5003636;28;20546;-88
2022/07/26 11:37:22;;;;;;;3.13;1.63;;;;;;;;;;5014420;28;20174;-88
2022/07/26 11:40:46;;;;;;;2.35;1.38;;;;;;;;;;5014558;28;20217;-88
2022/07/26 11:43:51;;;;;;;3.60;1.48;;;;;;;;;;4992145;28;20194;-88
2022/07/26 11:46:56;;;;;;;4.47;1.45;;;;;;;;;;5013994;28;20178;-88
2022/07/26 11:50:05;;;;;;;2.10;1.45;;;;;;;;;;5014445;28;20575;-88
2022/07/26 11:53:36;;;;;;;2.85;1.25;;;;;;;;;;5003065;28;20197;-88
2022/07/26 11:56:51;;;;;;;2.83;1.50;;;;;;;;;;5003182;28;20186;-88
2022/07/26 11:59:56;;;;;;;2.92;1.42;;;;;;;;;;5013892;28;20186;-88
2022/07/26 12:03:00;;;;;;;4.10;1.60;;;;;;;;;;5013938;28;20670;-88
2022/07/26 12:06:08;;;;;;;4.75;1.70;;;;;;;;;;5002720;28;20197;-88
2022/07/26 12:09:30;;;;;;;4.57;1.60;;;;;;;;;;5002853;28;20174;-88
2022/07/26 12:12:35;;;;;;;2.13;1.38;;;;;;;;;;5002935;28;20192;-88
2022/07/26 12:16:08;;;;;;;3.53;1.70;;;;;;;;;;5002755;28;20191;-88
2022/07/26 12:19:15;;;;;;;3.88;1.73;;;;;;;;;;4992205;28;20170;-88
2022/07/26 12:22:21;;;;;;;2.45;1.60;;;;;;;;;;5002266;28;20180;-88
2022/07/26 12:25:26;;;;;;;3.10;1.52;;;;;;;;;;5002792;28;20182;-88
2022/07/26 12:28:41;;;;;;;3.33;1.50;;;;;;;;;;5002239;28;20197;-88
2022/07/26 12:31:58;;;;;;;4.93;1.40;;;;;;;;;;4990915;28;20700;-88
2022/07/26 12:35:08;;;;;;;1.40;1.30;;;;;;;;;;5014149;28;20178;-88
2022/07/26 12:38:12;;;;;;;5.05;1.48;;;;;;;;;;5025070;28;20186;-88
2022/07/26 12:41:36;;;;;;;3.38;1.58;;;;;;;;;;5002277;28;20217;-88
2022/07/26 12:44:41;;;;;;;1.55;1.45;;;;;;;;;;5013541;28;20178;-88
2022/07/26 12:47:48;;;;;;;3.10;1.52;;;;;;;;;;5013826;28;20185;-88
2022/07/26 12:50:52;;;;;;;2.72;1.40;;;;;;;;;;5001897;28;20237;-88
2022/07/26 12:53:56;;;;;;;1.73;1.40;;;;;;;;;;4990911;28;20182;-88
2022/07/26 12:57:00;;;;;;;4.35;1.30;;;;;;;;;;5001856;28;20177;-88
2022/07/26 13:00:06;;;;;;;3.17;1.27;;;;;;;;;;5001723;28;20214;-88
2022/07/26 13:03:10;;;;;;;2.60;1.30;;;;;;;;;;5013639;28;20185;-88
2022/07/26 13:06:14;;;;;;;7.05;1.40;;;;;;;;;;4990660;28;20181;-88
2022/07/26 13:09:19;;;;;;;3.30;1.13;;;;;;;;;;5013067;28;20182;-88
2022/07/26 13:12:23;;;;;;;4.10;1.40;;;;;;;;;;5001542;28;20190;-88
2022/07/26 13:15:27;;;;;;;1.73;1.10;;;;;;;;;;5012979;28;20564;-88
2022/07/26 13:18:31;;;;;;;3.03;1.10;;;;;;;;;;5001988;28;20538;-88
2022/07/26 13:21:35;;;;;;;3.70;0.93;;;;;;;;;;4990352;28;20213;-88
2022/07/26 13:24:39;;;;;;;2.88;1.00;;;;;;;;;;5001764;28;20633;-88
2022/07/26 13:27:43;;;;;;;4.28;1.45;;;;;;;;;;5012479;28;20201;-88
2022/07/26 13:30:48;;;;;;;4.22;1.20;;;;;;;;;;4990024;28;20225;-89
2022/07/26 13:33:52;;;;;;;3.58;1.30;;;;;;;;;;5013451;28;20174;-89
2022/07/26 13:36:56;;;;;;;1.60;1.10;;;;;;;;;;5000248;28;20617;-89
2022/07/26 13:40:01;;;;;;;1.92;1.20;;;;;;;;;;5001084;28;20217;-89
2022/07/26 13:43:05;;;;;;;2.72;1.00;;;;;;;;;;4990452;28;20527;-89
2022/07/26 13:46:09;;;;;;;3.45;1.08;;;;;;;;;;5024180;28;20186;-89
2022/07/26 13:49:13;;;;;;;4.07;1.20;;;;;;;;;;5013063;28;20185;-89
2022/07/26 13:52:17;;;;;;;2.58;1.05;;;;;;;;;;5012571;28;20198;-90
2022/07/26 13:55:22;;;;;;;6.35;1.23;;;;;;;;;;5000816;28;20186;-90
2022/07/26 13:58:26;;;;;;;3.33;0.85;;;;;;;;;;4981933;28;20673;-90
2022/07/26 14:01:32;;;;;;;3.72;1.17;;;;;;;;;;4995680;28;20221;-89
2022/07/26 14:04:36;;;;;;;4.93;1.15;;;;;;;;;;5013018;28;20526;-89
2022/07/26 14:07:41;;;;;;;1.42;0.90;;;;;;;;;;5001281;28;20197;-89
2022/07/26 14:10:45;;;;;;;1.20;1.00;;;;;;;;;;5004675;28;20585;-89
2022/07/26 14:13:49;;;;;;;7.53;1.10;;;;;;;;;;4993820;28;20181;-89
2022/07/26 14:16:53;;;;;;;4.20;1.33;;;;;;;;;;4995122;28;20186;-89
2022/07/26 14:19:57;;;;;;;4.72;1.15;;;;;;;;;;5005690;28;20225;-89
2022/07/26 14:23:01;;;;;;;1.38;1.00;;;;;;;;;;5016093;28;20181;-90
2022/07/26 14:26:05;;;;;;;4.75;1.27;;;;;;;;;;5015633;28;20190;-89
2022/07/26 14:29:10;;;;;;;1.40;0.90;;;;;;;;;;5015698;28;20197;-89
2022/07/26 14:32:14;;;;;;;1.83;1.00;;;;;;;;;;5007587;28;20218;-88
2022/07/26 14:35:18;;;;;;;1.75;1.17;;;;;;;;;;4997659;28;20189;-88
2022/07/26 14:38:22;;;;;;;1.42;1.10;;;;;;;;;;4999504;28;20655;-88
2022/07/26 14:41:26;;;;;;;3.88;1.00;;;;;;;;;;5016046;28;20212;-88
2022/07/26 14:44:30;;;;;;;4.65;1.00;;;;;;;;;;5015604;28;20189;-89
2022/07/26 14:47:35;;;;;;;3.45;0.90;;;;;;;;;;5015836;28;20188;-89
2022/07/26 14:50:40;;;;;;;2.17;1.00;;;;;;;;;;5007315;28;20219;-89
2022/07/26 14:53:44;;;;;;;2.65;0.93;;;;;;;;;;5005834;28;20189;-89
2022/07/26 14:56:48;;;;;;;2.05;1.05;;;;;;;;;;5010667;28;20197;-89
2022/07/26 14:59:52;;;;;;;3.47;1.00;;;;;;;;;;5006991;28;20188;-88
2022/07/26 15:02:57;;;;;;;2.30;0.93;;;;;;;;;;4990642;28;20182;-88
2022/07/26 15:06:01;;;;;;;2.28;1.00;;;;;;;;;;5011722;28;20192;-88
2022/07/26 15:09:05;;;;;;;3.00;0.88;;;;;;;;;;4984717;28;20180;-88
2022/07/26 15:12:09;;;;;;;7.60;1.42;;;;;;;;;;4984368;28;20215;-88
2022/07/26 15:15:13;;;;;;;3.03;0.80;;;;;;;;;;4986020;28;20183;-88
2022/07/26 15:18:16;;;;;;;4.07;1.15;;;;;;;;;;4992368;28;20196;-89
2022/07/26 15:21:20;;;;;;;2.40;1.10;;;;;;;;;;4992968;28;20220;-88
2022/07/26 15:24:25;;;;;;;2.63;1.00;;;;;;;;;;5008054;28;20199;-88
2022/07/26 15:27:29;;;;;;;2.80;0.70;;;;;;;;;;5004487;28;20185;-88
2022/07/26 15:30:34;;;;;;;2.67;1.02;;;;;;;;;;5035070;22;20234;-85
2022/07/26 15:33:39;;;;;;;2.50;0.90;;;;;;;;;;5030948;28;20191;-85
2022/07/26 15:36:43;;;;;;;2.45;0.98;;;;;;;;;;5042657;28;20183;-86
2022/07/26 15:39:47;;;;;;;3.65;1.00;;;;;;;;;;5031422;28;20183;-85
2022/07/26 15:42:51;;;;;;;3.03;0.80;;;;;;;;;;5034544;28;20199;-86
2022/07/26 15:45:56;;;;;;;5.20;1.00;;;;;;;;;;5010004;28;20187;-85
2022/07/26 15:49:00;;;;;;;2.30;0.90;;;;;;;;;;5005609;28;20198;-85
2022/07/26 15:52:04;;;;;;;2.15;0.90;;;;;;;;;;4998933;28;20679;-86
2022/07/26 15:55:10;;;;;;;3.38;0.93;;;;;;;;;;5017284;28;20195;-85
2022/07/26 15:58:14;;;;;;;2.38;0.80;;;;;;;;;;5023265;28;20186;-84
2022/07/26 16:01:18;;;;;;;3.75;1.10;;;;;;;;;;5022589;28;20211;-86
2022/07/26 16:04:22;;;;;;;5.43;1.10;;;;;;;;;;5011128;28;20196;-86
2022/07/26 16:07:27;;;;;;;3.47;0.77;;;;;;;;;;5024429;28;20186;-85
2022/07/26 16:10:31;;;;;;;4.13;0.82;;;;;;;;;;5001464;28;20215;-86
2022/07/26 16:13:35;;;;;;;3.05;0.98;;;;;;;;;;5012126;28;20645;-85
2022/07/26 16:16:39;;;;;;;1.15;0.80;;;;;;;;;;5001764;28;20194;-90
2022/07/26 16:19:43;;;;;;;1.33;0.90;;;;;;;;;;5024846;28;20190;-85
2022/07/26 16:22:48;;;;;;;4.30;1.00;;;;;;;;;;5022664;28;20192;-86
2022/07/26 16:25:52;;;;;;;1.90;1.00;;;;;;;;;;5000353;28;20202;-86
2022/07/26 16:28:56;;;;;;;2.33;0.82;;;;;;;;;;5000998;28;20199;-86
2022/07/26 16:32:00;;;;;;;2.58;1.00;;;;;;;;;;5009188;28;20225;-85
2022/07/26 16:35:05;;;;;;;4.47;1.10;;;;;;;;;;5010120;28;20193;-85
2022/07/26 16:38:09;;;;;;;2.13;1.13;;;;;;;;;;5022825;28;20186;-85
2022/07/26 16:41:17;;;;;;;3.15;1.00;;;;;;;;;;5010797;28;20216;-89
2022/07/26 16:44:22;;;;;;;10.98;1.33;;;;;;;;;;5011859;28;20174;-85
2022/07/26 16:47:27;;;;;;;3.38;0.98;;;;;;;;;;4999909;28;20182;-86
2022/07/26 16:50:31;;;;;;;2.30;0.90;;;;;;;;;;5021953;28;20208;-86
2022/07/26 16:53:35;;;;;;;3.78;1.05;;;;;;;;;;5013696;28;20176;-86
2022/07/26 16:56:40;;;;;;;1.50;0.90;;;;;;;;;;5014579;28;20522;-91
2022/07/26 16:59:44;;;;;;;4.03;1.30;;;;;;;;;;5023155;28;20181;-86
2022/07/26 17:02:48;;;;;;;1.77;0.93;;;;;;;;;;5002007;28;20192;-86
2022/07/26 17:05:53;;;;;;;1.25;0.85;;;;;;;;;;4992830;28;20202;-86
2022/07/26 17:08:57;;;;;;;4.53;1.05;;;;;;;;;;4992289;28;20178;-86
2022/07/26 17:12:01;;;;;;;2.07;0.93;;;;;;;;;;5006247;28;20224;-86
2022/07/26 17:15:06;;;;;;;1.77;1.03;;;;;;;;;;5027097;28;20196;-85
2022/07/26 17:18:11;;;;;;;3.50;0.90;;;;;;;;;;5019519;28;20552;-85
2022/07/26 17:21:15;;;;;;;2.38;1.08;;;;;;;;;;4996955;28;20219;-85
2022/07/26 17:24:20;;;;;;;3.05;1.00;;;;;;;;;;5018431;28;20185;-85
2022/07/26 17:27:24;;;;;;;2.63;0.83;;;;;;;;;;4997103;28;20660;-85
2022/07/26 17:30:29;;;;;;;3.47;0.80;;;;;;;;;;5010452;28;20221;-85
2022/07/26 17:33:33;;;;;;;2.00;1.07;;;;;;;;;;4996126;28;20176;-86
2022/07/26 17:36:37;;;;;;;3.03;0.87;;;;;;;;;;5010784;28;20193;-85
2022/07/26 17:39:42;;;;;;;2.37;0.90;;;;;;;;;;5010310;28;20186;-85
2022/07/26 17:42:45;;;;;;;5.40;1.13;;;;;;;;;;5001653;28;20517;-88
2022/07/26 17:45:49;;;;;;;4.00;0.87;;;;;;;;;;5028002;28;20636;-86
2022/07/26 17:48:54;;;;;;;1.50;0.90;;;;;;;;;;5037060;28;20178;-86
2022/07/26 17:51:58;;;;;;;2.57;0.80;;;;;;;;;;5010615;28;20219;-85
2022/07/26 17:55:03;;;;;;;2.03;0.87;;;;;;;;;;5001158;28;20210;-85
2022/07/26 17:58:08;;;;;;;1.10;0.77;;;;;;;;;;5003664;28;20185;-85
2022/07/26 18:01:12;;;;;;;4.33;1.00;;;;;;;;;;5006270;28;20214;-85
2022/07/26 18:04:17;;;;;;;1.80;0.90;;;;;;;;;;5026639;28;20199;-83
2022/07/26 18:07:22;;;;;;;1.53;0.70;;;;;;;;;;5028299;28;20195;-85
2022/07/26 18:10:27;;;;;;;0.97;0.80;;;;;;;;;;5012955;28;20192;-85
2022/07/26 18:13:31;;;;;;;2.60;1.03;;;;;;;;;;5010589;28;20208;-85
2022/07/26 18:16:37;;;;;;;2.27;0.80;;;;;;;;;;5025224;28;20538;-86
2022/07/26 18:19:41;;;;;;;4.10;0.90;;;;;;;;;;5028821;28;20260;-84
2022/07/26 18:22:45;;;;;;;1.47;0.70;;;;;;;;;;5015332;28;20178;-85
2022/07/26 18:25:52;;;;;;;0.70;0.70;;;;;;;;;;5016764;28;20193;-84
2022/07/26 18:28:56;;;;;;;1.77;0.97;;;;;;;;;;5029497;28;20526;-85
2022/07/26 18:32:01;;;;;;;2.57;1.00;;;;;;;;;;5007347;28;20229;-84
2022/07/26 18:35:05;;;;;;;3.60;1.00;;;;;;;;;;5006055;28;20190;-85